Time;durP1;ratioP1;P1;durP2;ratioP2;P2;SDS_P1;SDS_P2;PMS_P1;PMS_P2;Temp;Humidity;BMP_temperature;BMP_pressure;BME280_temperature;BME280_humidity;BME280_pressure;Samples;Min_cycle;Max_cycle;Signal;HPM_P1;HPM_P2
2021/01/03 19:47:47;;;;;;;84.07;22.25;;;1.50;45.20;;;;;;5148783;27;20597;-68
2021/01/03 19:50:14;;;;;;;89.40;23.98;;;1.50;46.00;;;;;;5117160;28;20223;-68
2021/01/03 19:52:41;;;;;;;90.22;24.17;;;1.50;46.70;;;;;;5109672;28;20207;-68
2021/01/03 19:55:09;;;;;;;89.05;23.55;;;1.50;47.50;;;;;;5108913;28;20682;-68
2021/01/03 19:57:35;;;;;;;91.93;24.17;;;1.50;49.00;;;;;;5108255;28;20208;-66
2021/01/03 20:00:06;;;;;;;87.45;22.67;;;1.50;49.90;;;;;;5109082;28;20255;-67
2021/01/03 20:02:33;;;;;;;86.60;22.85;;;1.60;50.50;;;;;;5109319;28;20208;-67
2021/01/03 20:05:00;;;;;;;87.97;22.85;;;1.60;50.90;;;;;;5109315;28;20200;-67
2021/01/03 20:07:26;;;;;;;86.05;22.75;;;1.60;51.20;;;;;;5109527;28;20227;-68
2021/01/03 20:09:52;;;;;;;92.80;24.30;;;1.60;52.50;;;;;;5108812;28;20694;-67
2021/01/03 20:12:19;;;;;;;87.93;22.55;;;1.60;53.00;;;;;;5108026;28;20691;-67
2021/01/03 20:14:45;;;;;;;91.07;23.17;;;1.70;53.40;;;;;;5107555;28;20682;-67
2021/01/03 20:17:11;;;;;;;89.75;24.48;;;1.70;53.80;;;;;;5107479;28;20227;-68
2021/01/03 20:19:40;;;;;;;89.10;23.90;;;1.70;54.10;;;;;;5103207;28;20269;-68
2021/01/03 20:22:08;;;;;;;89.68;24.00;;;1.70;54.40;;;;;;5105417;28;20212;-68
2021/01/03 20:24:34;;;;;;;86.15;23.15;;;1.70;54.50;;;;;;5103255;28;20287;-68
2021/01/03 20:27:04;;;;;;;87.43;23.85;;;1.70;54.70;;;;;;5104057;28;20755;-69
2021/01/03 20:29:30;;;;;;;86.03;22.38;;;1.70;54.00;;;;;;5107649;28;20703;-68
2021/01/03 20:31:59;;;;;;;90.45;24.40;;;1.70;54.40;;;;;;5107359;28;20204;-69
2021/01/03 20:34:26;;;;;;;87.70;24.48;;;1.70;54.10;;;;;;5103767;28;20322;-68
2021/01/03 20:36:55;;;;;;;91.47;24.80;;;1.70;54.00;;;;;;5103396;28;20230;-68
2021/01/03 20:39:23;;;;;;;91.45;24.13;;;1.70;53.00;;;;;;5106215;28;20228;-68
2021/01/03 20:41:51;;;;;;;91.57;24.73;;;1.70;52.80;;;;;;5106793;28;20200;-68
2021/01/03 20:44:17;;;;;;;87.10;23.35;;;1.70;52.00;;;;;;5107612;28;20200;-68
2021/01/03 20:46:44;;;;;;;86.30;22.83;;;1.70;51.00;;;;;;5108039;28;20674;-69
2021/01/03 20:49:10;;;;;;;89.05;24.77;;;1.70;50.70;;;;;;5104842;28;20591;-68
2021/01/03 20:51:36;;;;;;;92.30;25.83;;;1.70;49.90;;;;;;5103256;28;20207;-67
2021/01/03 20:54:03;;;;;;;84.53;22.63;;;1.70;49.40;;;;;;5106691;28;20208;-67
2021/01/03 20:56:30;;;;;;;88.68;22.40;;;1.70;48.30;;;;;;5107373;28;20220;-68
2021/01/03 20:58:59;;;;;;;93.15;25.85;;;1.70;47.90;;;;;;5095453;28;20208;-68
2021/01/03 21:01:25;;;;;;;92.30;24.85;;;1.70;47.40;;;;;;5094074;28;20223;-67
2021/01/03 21:03:52;;;;;;;93.20;27.73;;;1.70;47.00;;;;;;5093225;28;20196;-67
2021/01/03 21:06:18;;;;;;;94.03;28.88;;;1.70;47.00;;;;;;5090283;28;20248;-69
2021/01/03 21:08:44;;;;;;;92.53;26.38;;;1.70;46.90;;;;;;5088671;28;20292;-68
2021/01/03 21:11:11;;;;;;;98.83;28.77;;;1.70;45.90;;;;;;5090036;28;20835;-68
2021/01/03 21:13:38;;;;;;;92.75;25.70;;;1.70;45.80;;;;;;5094529;28;20450;-68
2021/01/03 21:16:05;;;;;;;93.07;26.60;;;1.70;45.40;;;;;;5092592;28;20672;-68
2021/01/03 21:18:31;;;;;;;86.35;25.05;;;1.70;45.00;;;;;;5094226;28;20215;-68
2021/01/03 21:20:58;;;;;;;94.82;26.85;;;1.80;44.70;;;;;;5093586;28;20263;-68
2021/01/03 21:23:28;;;;;;;92.47;26.30;;;1.80;43.80;;;;;;5093959;28;20630;-68
2021/01/03 21:26:17;;;;;;;98.45;27.25;;;1.80;43.60;;;;;;5094139;28;20211;-68
2021/01/03 21:28:45;;;;;;;86.97;22.75;;;1.80;43.80;;;;;;5093869;28;20322;-68
2021/01/03 21:31:25;;;;;;;94.85;27.95;;;1.80;44.40;;;;;;5093579;28;20211;-68
2021/01/03 21:33:56;;;;;;;98.65;28.35;;;1.70;43.50;;;;;;5093602;28;20208;-68
2021/01/03 21:36:37;;;;;;;91.38;26.35;;;1.70;42.80;;;;;;5093584;28;20228;-68
2021/01/03 21:39:10;;;;;;;99.03;29.95;;;1.70;41.60;;;;;;5093680;28;20232;-68
2021/01/03 21:41:48;;;;;;;95.68;27.58;;;1.70;40.70;;;;;;5093482;28;20212;-68
2021/01/03 21:44:58;;;;;;;101.72;29.63;;;1.70;41.10;;;;;;5093390;28;20207;-68
2021/01/03 21:47:44;;;;;;;99.75;29.50;;;1.70;41.10;;;;;;5093490;28;20208;-68
2021/01/03 21:50:16;;;;;;;97.15;30.55;;;1.70;40.90;;;;;;5092936;28;20224;-68
2021/01/03 21:52:58;;;;;;;95.03;30.02;;;1.70;40.60;;;;;;5093383;28;20218;-68
2021/01/03 21:55:34;;;;;;;97.63;29.10;;;1.80;41.10;;;;;;5093706;28;20207;-68
2021/01/03 21:58:37;;;;;;;96.40;29.20;;;1.80;41.10;;;;;;5093840;28;20199;-68
2021/01/03 22:01:30;;;;;;;97.85;26.88;;;1.80;40.90;;;;;;5081951;28;20726;-68
2021/01/03 22:04:40;;;;;;;97.63;28.98;;;1.80;40.60;;;;;;5093174;28;20247;-68
2021/01/03 22:07:49;;;;;;;97.97;26.83;;;1.80;40.50;;;;;;5035765;28;20198;-68
2021/01/03 22:10:34;;;;;;;93.00;28.23;;;1.80;40.30;;;;;;5091665;28;20736;-68
2021/01/03 22:13:21;;;;;;;99.30;28.65;;;1.80;40.30;;;;;;5092937;28;20208;-68
2021/01/03 22:16:11;;;;;;;98.50;29.98;;;1.80;40.40;;;;;;5092706;28;20212;-68
2021/01/03 22:19:01;;;;;;;92.35;26.65;;;1.80;39.20;;;;;;5092893;28;20208;-68
2021/01/03 22:21:34;;;;;;;94.70;28.27;;;1.90;39.20;;;;;;5092245;28;20876;-68
2021/01/03 22:24:09;;;;;;;95.88;27.85;;;1.80;37.80;;;;;;5092523;28;20204;-68
2021/01/03 22:26:39;;;;;;;98.55;27.80;;;1.80;36.50;;;;;;5093009;28;20206;-68
2021/01/03 22:29:32;;;;;;;90.75;25.98;;;1.80;36.10;;;;;;5092665;28;20223;-68
2021/01/03 22:32:05;;;;;;;100.10;28.88;;;1.80;35.90;;;;;;5089757;28;20204;-68
2021/01/03 22:34:43;;;;;;;94.82;27.92;;;1.80;35.60;;;;;;5092361;28;20246;-68
2021/01/03 22:37:24;;;;;;;92.85;26.95;;;1.80;35.80;;;;;;5092667;28;20305;-68
2021/01/03 22:39:53;;;;;;;94.10;27.17;;;1.80;35.40;;;;;;5092437;28;20707;-68
2021/01/03 22:42:26;;;;;;;92.80;27.38;;;1.90;35.80;;;;;;5092606;28;20585;-68
2021/01/03 22:45:05;;;;;;;96.00;28.33;;;1.90;35.40;;;;;;5092164;28;20258;-68
2021/01/03 22:47:52;;;;;;;98.28;29.17;;;1.90;35.30;;;;;;5092262;28;20212;-68
2021/01/03 22:50:47;;;;;;;98.82;30.17;;;1.90;34.60;;;;;;5091702;28;20714;-68
2021/01/03 22:53:39;;;;;;;95.72;28.35;;;1.80;34.40;;;;;;5084973;28;20211;-68
2021/01/03 22:56:27;;;;;;;96.63;28.63;;;1.90;33.60;;;;;;5083677;28;20310;-68
2021/01/03 22:59:15;;;;;;;94.28;26.98;;;1.80;34.00;;;;;;5092122;28;20208;-68
2021/01/03 23:01:48;;;;;;;96.38;26.83;;;1.80;33.70;;;;;;5078618;28;20260;-68
2021/01/03 23:04:32;;;;;;;90.57;26.75;;;1.80;34.30;;;;;;5091982;28;20211;-68
2021/01/03 23:07:03;;;;;;;101.05;28.23;;;1.80;34.30;;;;;;5092005;28;20286;-68
2021/01/03 23:09:33;;;;;;;94.57;27.60;;;1.80;34.50;;;;;;5091969;28;20242;-68
2021/01/03 23:12:06;;;;;;;94.55;26.70;;;1.80;34.40;;;;;;5091332;28;20211;-68
2021/01/03 23:14:35;;;;;;;92.97;27.65;;;1.80;34.00;;;;;;5092202;28;20236;-68
2021/01/03 23:17:09;;;;;;;94.88;27.10;;;1.80;34.20;;;;;;5092102;28;20324;-68
2021/01/03 23:19:43;;;;;;;94.97;27.52;;;1.80;33.50;;;;;;5092225;28;20713;-68
2021/01/03 23:22:13;;;;;;;90.03;27.38;;;1.70;33.90;;;;;;5091302;28;20204;-68
2021/01/03 23:24:42;;;;;;;92.18;26.30;;;1.70;33.80;;;;;;5092065;28;20710;-68
2021/01/03 23:27:12;;;;;;;90.55;25.38;;;1.70;34.40;;;;;;5091897;28;20204;-68
2021/01/03 23:29:41;;;;;;;92.07;26.30;;;1.70;34.50;;;;;;5091495;28;20224;-68
2021/01/03 23:32:09;;;;;;;93.03;25.30;;;1.70;34.40;;;;;;5091390;28;20679;-68
2021/01/03 23:34:40;;;;;;;90.88;25.85;;;1.70;34.30;;;;;;5091400;28;20211;-68
2021/01/03 23:37:21;;;;;;;94.57;26.38;;;1.70;34.10;;;;;;5091760;28;20216;-68
2021/01/03 23:39:53;;;;;;;93.53;27.15;;;1.70;34.40;;;;;;5091245;28;20224;-68
2021/01/03 23:42:25;;;;;;;91.60;26.80;;;1.80;34.90;;;;;;5091737;28;20216;-68
2021/01/03 23:45:09;;;;;;;92.43;23.73;;;1.80;35.00;;;;;;5091431;28;20208;-68
2021/01/03 23:47:59;;;;;;;94.80;26.42;;;1.80;35.20;;;;;;5091389;28;20683;-68
2021/01/03 23:50:33;;;;;;;91.97;25.05;;;1.80;35.30;;;;;;5091055;28;20775;-68
2021/01/03 23:53:15;;;;;;;90.10;24.75;;;1.80;35.60;;;;;;5091577;28;20214;-68
2021/01/03 23:56:00;;;;;;;93.05;25.30;;;1.80;35.50;;;;;;5091085;28;20297;-68
2021/01/03 23:58:44;;;;;;;90.28;26.15;;;1.80;35.00;;;;;;5091614;28;20203;-68
